MiSS Sarah — WDE9595 — position and weather

sailwx.info

Track history (hours):
 
Tides and Currents Weather Stations Pressure Air Temp Water Temp Dewpoint Dewpoint Depression Visibility Wind Speed Wind Dir Waves Ship Positions

MiSS Sarah

More information available from US FCC via Universal Licensing System and Coast Guard Vessel Documentation Center.

Last reported at 2014-Jul-12 13:32 UTC. Time now 2014-Jul-22 17:31 UTC.
Position N 30°02' W 091°16'.
Warning: this ship's position is 10 days out of date.

Length 24 m; draft 2.6 m.

Type: Towing. MMSI: 367419040.

Date/timePositionNaut miles runAvg speedWind from/ knotsBaromVisibWave heightAir tempDewpointWater temp
2014-Jul-12 13:32N 30°02' W 091°16'5 5.1
2014-Jul-12 12:33N 29°57' W 091°16'5 5.0
2014-Jul-12 11:33N 29°53' W 091°13'5 4.7
2014-Jul-12 10:33N 29°49' W 091°10'5 4.9
2014-Jul-12 09:33N 29°44' W 091°11'4 3.9
2014-Jul-12 08:33N 29°41' W 091°13'5 4.7
2014-Jul-12 07:33N 29°39' W 091°18'5 4.9
2014-Jul-12 06:33N 29°39' W 091°23'5 4.9
2014-Jul-12 05:33N 29°41' W 091°29'4 4.5
2014-Jul-12 04:33N 29°43' W 091°33'6 4.9
2014-Jul-12 03:24N 29°46' W 091°39'5 5.3
2014-Jul-12 02:30N 29°46' W 091°44'160 4.5
2014-Jul-10 15:04N 29°23' W 094°46'4 6.9
2014-Jul-10 14:32N 29°22' W 094°51'7 0.4
2014-Jul-09 21:04N 29°29' W 094°52'4 6.9
2014-Jul-09 20:33N 29°32' W 094°54'7 6.8
2014-Jul-09 19:33N 29°38' W 094°58'6 6.0
2014-Jul-09 18:33N 29°43' W 095°01'5 4.8
2014-Jul-09 17:33N 29°45' W 095°06'6 5.6
2014-Jul-09 16:33N 29°44' W 095°13'1 1.0
2014-Jul-09 15:33N 29°44' W 095°14'0 0.0
2014-Jul-09 14:33N 29°44' W 095°14'0 0.0
2014-Jul-09 13:33N 29°44' W 095°14'0 0.0
2014-Jul-09 12:33N 29°44' W 095°14'0 0.0
2014-Jul-09 11:33N 29°44' W 095°14'0 0.0
2014-Jul-09 10:33N 29°44' W 095°14'0 0.0
2014-Jul-09 09:33N 29°44' W 095°14'0 0.0
2014-Jul-09 08:33N 29°44' W 095°14'0 0.0
2014-Jul-09 07:33N 29°44' W 095°14'0 0.0
2014-Jul-09 06:33N 29°44' W 095°14'0 0.0
2014-Jul-09 05:33N 29°44' W 095°14'0 0.0
2014-Jul-09 04:33N 29°44' W 095°14'0 0.0
2014-Jul-09 03:33N 29°44' W 095°14'0 0.0
2014-Jul-09 02:33N 29°44' W 095°14'0 0.0
2014-Jul-09 01:33N 29°44' W 095°14'0 0.0
2014-Jul-09 00:33N 29°44' W 095°14'0 0.0
2014-Jul-08 23:33N 29°44' W 095°14'0 0.0
2014-Jul-08 22:33N 29°44' W 095°14'0 0.0
2014-Jul-08 21:33N 29°44' W 095°14'0 0.0
2014-Jul-08 20:33N 29°44' W 095°14'0 0.0
2014-Jul-08 19:33N 29°44' W 095°14'0 0.0
2014-Jul-08 18:33N 29°44' W 095°14'0 0.0
2014-Jul-08 17:33N 29°44' W 095°14'0 0.0
2014-Jul-08 16:33N 29°44' W 095°14'0 0.0
2014-Jul-08 15:33N 29°44' W 095°14'0 0.0
2014-Jul-08 14:33N 29°44' W 095°14'1 1.0
2014-Jul-08 13:33N 29°43' W 095°13'1 0.9
2014-Jul-08 12:33N 29°44' W 095°14'6 6.0
2014-Jul-08 11:33N 29°44' W 095°07'1 1.4
2014-Jul-08 10:33N 29°46' W 095°07'0 0.2
2014-Jul-08 09:33N 29°46' W 095°07'0 0.0
2014-Jul-08 08:33N 29°46' W 095°07'0 0.0
2014-Jul-08 07:33N 29°46' W 095°07'0 0.0
2014-Jul-08 06:33N 29°46' W 095°07'0 0.0
2014-Jul-08 05:33N 29°46' W 095°07'0 0.0
2014-Jul-08 04:33N 29°46' W 095°07'0 0.0
2014-Jul-08 03:33N 29°46' W 095°07'0 0.0
2014-Jul-08 02:33N 29°46' W 095°07'0 0.0
2014-Jul-08 01:33N 29°46' W 095°07'0 0.0
2014-Jul-08 00:33N 29°46' W 095°07'0 0.0
2014-Jul-07 23:33N 29°46' W 095°07'0 0.0
2014-Jul-07 22:33N 29°46' W 095°07'0 0.0
2014-Jul-07 21:33N 29°46' W 095°07'0 0.0
2014-Jul-07 20:33N 29°46' W 095°07'0 0.0
2014-Jul-07 19:33N 29°46' W 095°07'0 0.0
2014-Jul-07 18:33N 29°46' W 095°07'0 0.0
2014-Jul-07 17:33N 29°46' W 095°07'0 0.0
2014-Jul-07 16:33N 29°46' W 095°07'0 0.2
2014-Jul-07 15:33N 29°46' W 095°07'0 0.0
2014-Jul-07 14:33N 29°46' W 095°07'1 0.9
2014-Jul-07 13:33N 29°45' W 095°06'1 0.8
2014-Jul-07 12:33N 29°45' W 095°06'4 4.1
2014-Jul-07 11:33N 29°44' W 095°02'4 4.3
2014-Jul-07 10:33N 29°45' W 095°07'1 1.2
2014-Jul-07 09:33N 29°46' W 095°07'0 0.0
2014-Jul-07 08:33N 29°46' W 095°07'0 0.0
2014-Jul-07 07:33N 29°46' W 095°07'0 0.0
2014-Jul-07 06:33N 29°46' W 095°07'0 0.0
2014-Jul-07 05:33N 29°46' W 095°07'0 0.0
2014-Jul-07 04:33N 29°46' W 095°07'0 0.0
2014-Jul-07 03:33N 29°46' W 095°07'0 0.0
2014-Jul-07 02:33N 29°46' W 095°07'0 0.1
2014-Jul-07 01:33N 29°46' W 095°07'0 0.1
2014-Jul-07 00:33N 29°46' W 095°07'0 0.0
2014-Jul-06 23:33N 29°46' W 095°07'0 0.0
2014-Jul-06 22:33N 29°46' W 095°07'0 0.0
2014-Jul-06 21:33N 29°46' W 095°07'0 0.0
2014-Jul-06 20:33N 29°46' W 095°07'0 0.0
2014-Jul-06 19:33N 29°46' W 095°07'0 0.0
2014-Jul-06 18:33N 29°46' W 095°07'0 0.2
2014-Jul-06 17:33N 29°46' W 095°07'0 0.0
2014-Jul-06 16:33N 29°46' W 095°07'0 0.0
2014-Jul-06 15:33N 29°46' W 095°07'0 0.0
2014-Jul-06 14:33N 29°46' W 095°07'0 0.0
2014-Jul-06 13:33N 29°46' W 095°07'0 0.0
2014-Jul-06 12:33N 29°46' W 095°07'0 0.0
2014-Jul-06 11:33N 29°46' W 095°07'0 0.0
2014-Jul-06 09:33N 29°46' W 095°07'0 0.0
2014-Jul-06 08:33N 29°46' W 095°07'0 0.0
2014-Jul-06 07:33N 29°46' W 095°07'0 0.0
2014-Jul-06 06:33N 29°46' W 095°07'0 0.0
2014-Jul-06 05:33N 29°46' W 095°07'0 0.0
2014-Jul-06 04:33N 29°46' W 095°07'0 0.0
2014-Jul-06 03:33N 29°46' W 095°07'0 0.0
2014-Jul-06 02:33N 29°46' W 095°07'0 0.0
2014-Jul-06 01:33N 29°46' W 095°07'0 0.0
2014-Jul-06 00:33N 29°46' W 095°07'0 0.0
2014-Jul-05 23:33N 29°46' W 095°07'0 0.0
2014-Jul-05 22:33N 29°46' W 095°07'0 0.0
2014-Jul-05 21:33N 29°46' W 095°07'0 0.0
2014-Jul-05 20:33N 29°46' W 095°07'0 0.0
2014-Jul-05 19:33N 29°46' W 095°07'0 0.0
2014-Jul-05 18:33N 29°46' W 095°07'0 0.1
2014-Jul-05 17:34N 29°46' W 095°07'0 0.1
2014-Jul-05 16:33N 29°46' W 095°07'0 0.0
2014-Jul-05 15:33N 29°46' W 095°07'0 0.0
2014-Jul-05 14:33N 29°46' W 095°07'0 0.0
2014-Jul-05 13:33N 29°46' W 095°07'1 0.8
2014-Jul-05 12:33N 29°45' W 095°06'0 0.0
2014-Jul-05 11:33N 29°45' W 095°06'1 0.8
2014-Jul-05 10:33N 29°46' W 095°07'0 0.0
2014-Jul-05 09:33N 29°46' W 095°07'0 0.0
2014-Jul-05 08:33N 29°46' W 095°07'0 0.0
2014-Jul-05 07:33N 29°46' W 095°07'3 3.2
2014-Jul-05 06:33N 29°44' W 095°04'7 7.0
2014-Jul-05 05:33N 29°39' W 094°58'9 8.4
2014-Jul-05 04:32N 29°32' W 094°53'8 7.7
2014-Jul-05 03:29N 29°24' W 094°49'171 5.7
2014-Jul-03 21:30N 29°44' W 091°34'8 7.3
2014-Jul-03 20:21N 29°40' W 091°26'6 7.5
2014-Jul-03 19:33N 29°38' W 091°19'7 6.5
2014-Jul-03 18:33N 29°43' W 091°13'1 1.5
2014-Jul-03 17:33N 29°43' W 091°12'7 6.8
2014-Jul-03 16:28N 29°51' W 091°12'35 5.0
2014-Jul-03 09:33N 30°26' W 091°12'1 0.9
2014-Jul-03 08:18N 30°25' W 091°12'0 0.0
2014-Jul-03 07:19N 30°25' W 091°12'5 5.2
2014-Jul-03 06:19N 30°30' W 091°12'  
Track history (hours):
 
Tides and Currents Weather Stations Pressure Air Temp Water Temp Dewpoint Dewpoint Depression Visibility Wind Speed Wind Dir Waves Ship Positions

MiSS Sarah

More information available from US FCC via Universal Licensing System and Coast Guard Vessel Documentation Center.

Last reported at 2014-Jul-12 13:32 UTC. Time now 2014-Jul-22 17:31 UTC.
Position N 30°02' W 091°16'.
Warning: this ship's position is 10 days out of date.

Length 24 m; draft 2.6 m.

Type: Towing. MMSI: 367419040.

Date/timePositionNaut miles runAvg speedWind from/ knotsBaromVisibWave heightAir tempDewpointWater temp
2014-Jul-12 13:32N 30°02' W 091°16'5 5.1
2014-Jul-12 12:33N 29°57' W 091°16'5 5.0
2014-Jul-12 11:33N 29°53' W 091°13'5 4.7
2014-Jul-12 10:33N 29°49' W 091°10'5 4.9
2014-Jul-12 09:33N 29°44' W 091°11'4 3.9
2014-Jul-12 08:33N 29°41' W 091°13'5 4.7
2014-Jul-12 07:33N 29°39' W 091°18'5 4.9
2014-Jul-12 06:33N 29°39' W 091°23'5 4.9
2014-Jul-12 05:33N 29°41' W 091°29'4 4.5
2014-Jul-12 04:33N 29°43' W 091°33'6 4.9
2014-Jul-12 03:24N 29°46' W 091°39'5 5.3
2014-Jul-12 02:30N 29°46' W 091°44'160 4.5
2014-Jul-10 15:04N 29°23' W 094°46'4 6.9
2014-Jul-10 14:32N 29°22' W 094°51'7 0.4
2014-Jul-09 21:04N 29°29' W 094°52'4 6.9
2014-Jul-09 20:33N 29°32' W 094°54'7 6.8
2014-Jul-09 19:33N 29°38' W 094°58'6 6.0
2014-Jul-09 18:33N 29°43' W 095°01'5 4.8
2014-Jul-09 17:33N 29°45' W 095°06'6 5.6
2014-Jul-09 16:33N 29°44' W 095°13'1 1.0
2014-Jul-09 15:33N 29°44' W 095°14'0 0.0
2014-Jul-09 14:33N 29°44' W 095°14'0 0.0
2014-Jul-09 13:33N 29°44' W 095°14'0 0.0
2014-Jul-09 12:33N 29°44' W 095°14'0 0.0
2014-Jul-09 11:33N 29°44' W 095°14'0 0.0
2014-Jul-09 10:33N 29°44' W 095°14'0 0.0
2014-Jul-09 09:33N 29°44' W 095°14'0 0.0
2014-Jul-09 08:33N 29°44' W 095°14'0 0.0
2014-Jul-09 07:33N 29°44' W 095°14'0 0.0
2014-Jul-09 06:33N 29°44' W 095°14'0 0.0
2014-Jul-09 05:33N 29°44' W 095°14'0 0.0
2014-Jul-09 04:33N 29°44' W 095°14'0 0.0
2014-Jul-09 03:33N 29°44' W 095°14'0 0.0
2014-Jul-09 02:33N 29°44' W 095°14'0 0.0
2014-Jul-09 01:33N 29°44' W 095°14'0 0.0
2014-Jul-09 00:33N 29°44' W 095°14'0 0.0
2014-Jul-08 23:33N 29°44' W 095°14'0 0.0
2014-Jul-08 22:33N 29°44' W 095°14'0 0.0
2014-Jul-08 21:33N 29°44' W 095°14'0 0.0
2014-Jul-08 20:33N 29°44' W 095°14'0 0.0
2014-Jul-08 19:33N 29°44' W 095°14'0 0.0
2014-Jul-08 18:33N 29°44' W 095°14'0 0.0
2014-Jul-08 17:33N 29°44' W 095°14'0 0.0
2014-Jul-08 16:33N 29°44' W 095°14'0 0.0
2014-Jul-08 15:33N 29°44' W 095°14'0 0.0
2014-Jul-08 14:33N 29°44' W 095°14'1 1.0
2014-Jul-08 13:33N 29°43' W 095°13'1 0.9
2014-Jul-08 12:33N 29°44' W 095°14'6 6.0
2014-Jul-08 11:33N 29°44' W 095°07'1 1.4
2014-Jul-08 10:33N 29°46' W 095°07'0 0.2
2014-Jul-08 09:33N 29°46' W 095°07'0 0.0
2014-Jul-08 08:33N 29°46' W 095°07'0 0.0
2014-Jul-08 07:33N 29°46' W 095°07'0 0.0
2014-Jul-08 06:33N 29°46' W 095°07'0 0.0
2014-Jul-08 05:33N 29°46' W 095°07'0 0.0
2014-Jul-08 04:33N 29°46' W 095°07'0 0.0
2014-Jul-08 03:33N 29°46' W 095°07'0 0.0
2014-Jul-08 02:33N 29°46' W 095°07'0 0.0
2014-Jul-08 01:33N 29°46' W 095°07'0 0.0
2014-Jul-08 00:33N 29°46' W 095°07'0 0.0
2014-Jul-07 23:33N 29°46' W 095°07'0 0.0
2014-Jul-07 22:33N 29°46' W 095°07'0 0.0
2014-Jul-07 21:33N 29°46' W 095°07'0 0.0
2014-Jul-07 20:33N 29°46' W 095°07'0 0.0
2014-Jul-07 19:33N 29°46' W 095°07'0 0.0
2014-Jul-07 18:33N 29°46' W 095°07'0 0.0
2014-Jul-07 17:33N 29°46' W 095°07'0 0.0
2014-Jul-07 16:33N 29°46' W 095°07'0 0.2
2014-Jul-07 15:33N 29°46' W 095°07'0 0.0
2014-Jul-07 14:33N 29°46' W 095°07'1 0.9
2014-Jul-07 13:33N 29°45' W 095°06'1 0.8
2014-Jul-07 12:33N 29°45' W 095°06'4 4.1
2014-Jul-07 11:33N 29°44' W 095°02'4 4.3
2014-Jul-07 10:33N 29°45' W 095°07'1 1.2
2014-Jul-07 09:33N 29°46' W 095°07'0 0.0
2014-Jul-07 08:33N 29°46' W 095°07'0 0.0
2014-Jul-07 07:33N 29°46' W 095°07'0 0.0
2014-Jul-07 06:33N 29°46' W 095°07'0 0.0
2014-Jul-07 05:33N 29°46' W 095°07'0 0.0
2014-Jul-07 04:33N 29°46' W 095°07'0 0.0
2014-Jul-07 03:33N 29°46' W 095°07'0 0.0
2014-Jul-07 02:33N 29°46' W 095°07'0 0.1
2014-Jul-07 01:33N 29°46' W 095°07'0 0.1
2014-Jul-07 00:33N 29°46' W 095°07'0 0.0
2014-Jul-06 23:33N 29°46' W 095°07'0 0.0
2014-Jul-06 22:33N 29°46' W 095°07'0 0.0
2014-Jul-06 21:33N 29°46' W 095°07'0 0.0
2014-Jul-06 20:33N 29°46' W 095°07'0 0.0
2014-Jul-06 19:33N 29°46' W 095°07'0 0.0
2014-Jul-06 18:33N 29°46' W 095°07'0 0.2
2014-Jul-06 17:33N 29°46' W 095°07'0 0.0
2014-Jul-06 16:33N 29°46' W 095°07'0 0.0
2014-Jul-06 15:33N 29°46' W 095°07'0 0.0
2014-Jul-06 14:33N 29°46' W 095°07'0 0.0
2014-Jul-06 13:33N 29°46' W 095°07'0 0.0
2014-Jul-06 12:33N 29°46' W 095°07'0 0.0
2014-Jul-06 11:33N 29°46' W 095°07'0 0.0
2014-Jul-06 09:33N 29°46' W 095°07'0 0.0
2014-Jul-06 08:33N 29°46' W 095°07'0 0.0
2014-Jul-06 07:33N 29°46' W 095°07'0 0.0
2014-Jul-06 06:33N 29°46' W 095°07'0 0.0
2014-Jul-06 05:33N 29°46' W 095°07'0 0.0
2014-Jul-06 04:33N 29°46' W 095°07'0 0.0
2014-Jul-06 03:33N 29°46' W 095°07'0 0.0
2014-Jul-06 02:33N 29°46' W 095°07'0 0.0
2014-Jul-06 01:33N 29°46' W 095°07'0 0.0
2014-Jul-06 00:33N 29°46' W 095°07'0 0.0
2014-Jul-05 23:33N 29°46' W 095°07'0 0.0
2014-Jul-05 22:33N 29°46' W 095°07'0 0.0
2014-Jul-05 21:33N 29°46' W 095°07'0 0.0
2014-Jul-05 20:33N 29°46' W 095°07'0 0.0
2014-Jul-05 19:33N 29°46' W 095°07'0 0.0
2014-Jul-05 18:33N 29°46' W 095°07'0 0.1
2014-Jul-05 17:34N 29°46' W 095°07'0 0.1
2014-Jul-05 16:33N 29°46' W 095°07'0 0.0
2014-Jul-05 15:33N 29°46' W 095°07'0 0.0
2014-Jul-05 14:33N 29°46' W 095°07'0 0.0
2014-Jul-05 13:33N 29°46' W 095°07'1 0.8
2014-Jul-05 12:33N 29°45' W 095°06'0 0.0
2014-Jul-05 11:33N 29°45' W 095°06'1 0.8
2014-Jul-05 10:33N 29°46' W 095°07'0 0.0
2014-Jul-05 09:33N 29°46' W 095°07'0 0.0
2014-Jul-05 08:33N 29°46' W 095°07'0 0.0
2014-Jul-05 07:33N 29°46' W 095°07'3 3.2
2014-Jul-05 06:33N 29°44' W 095°04'7 7.0
2014-Jul-05 05:33N 29°39' W 094°58'9 8.4
2014-Jul-05 04:32N 29°32' W 094°53'8 7.7
2014-Jul-05 03:29N 29°24' W 094°49'171 5.7
2014-Jul-03 21:30N 29°44' W 091°34'8 7.3
2014-Jul-03 20:21N 29°40' W 091°26'6 7.5
2014-Jul-03 19:33N 29°38' W 091°19'7 6.5
2014-Jul-03 18:33N 29°43' W 091°13'1 1.5
2014-Jul-03 17:33N 29°43' W 091°12'7 6.8
2014-Jul-03 16:28N 29°51' W 091°12'35 5.0
2014-Jul-03 09:33N 30°26' W 091°12'1 0.9
2014-Jul-03 08:18N 30°25' W 091°12'0 0.0
2014-Jul-03 07:19N 30°25' W 091°12'5 5.2
2014-Jul-03 06:19N 30°30' W 091°12'  

Dump ship's entire track history